Time;durP1;ratioP1;P1;durP2;ratioP2;P2;SDS_P1;SDS_P2;PMS_P1;PMS_P2;Temp;Humidity;BMP_temperature;BMP_pressure;BME280_temperature;BME280_humidity;BME280_pressure;Samples;Min_cycle;Max_cycle;Signal;HPM_P1;HPM_P2
2022/09/20 00:00:35;;;;;;;7.32;1.73;;;11.10;99.90;;;;;;5032462;28;20469;-70
2022/09/20 00:03:01;;;;;;;12.05;1.88;;;11.10;99.90;;;;;;5031826;28;20099;-69
2022/09/20 00:05:27;;;;;;;6.90;1.40;;;11.00;99.90;;;;;;5032198;28;20480;-69
2022/09/20 00:07:52;;;;;;;6.25;1.27;;;11.00;99.90;;;;;;5031784;28;20142;-69
2022/09/20 00:10:18;;;;;;;8.10;1.20;;;11.00;99.90;;;;;;5032073;28;20046;-71
2022/09/20 00:12:43;;;;;;;11.70;1.98;;;11.00;99.90;;;;;;5032242;28;20392;-70
2022/09/20 00:15:09;;;;;;;3.88;1.30;;;11.20;99.90;;;;;;5032156;28;20049;-69
2022/09/20 00:17:35;;;;;;;8.50;1.98;;;11.00;99.90;;;;;;5032537;28;20108;-69
2022/09/20 00:20:01;;;;;;;7.93;1.33;;;11.00;99.90;;;;;;5035776;28;20045;-70
2022/09/20 00:22:26;;;;;;;7.88;1.20;;;11.00;99.90;;;;;;5035505;28;20084;-69
2022/09/20 00:24:52;;;;;;;12.18;3.22;;;11.00;99.90;;;;;;5035267;28;20046;-69
2022/09/20 00:27:17;;;;;;;9.93;1.92;;;11.10;99.90;;;;;;5035571;28;20041;-69
2022/09/20 00:29:43;;;;;;;9.02;1.77;;;11.00;99.90;;;;;;5035332;28;20080;-70
2022/09/20 00:32:09;;;;;;;7.07;1.30;;;11.00;99.90;;;;;;5035571;28;20049;-70
2022/09/20 00:37:19;;;;;;;8.82;1.20;;;11.00;99.90;;;;;;5035390;28;20046;-70
2022/09/20 00:39:44;;;;;;;10.70;1.92;;;11.00;99.90;;;;;;5000300;28;20065;-70
2022/09/20 00:42:13;;;;;;;6.60;1.30;;;11.10;99.90;;;;;;5035169;28;20447;-69
2022/09/20 00:44:39;;;;;;;8.05;1.40;;;10.90;99.90;;;;;;5035358;28;20048;-69
2022/09/20 00:47:08;;;;;;;5.60;1.13;;;10.90;99.90;;;;;;5034942;28;20053;-69
2022/09/20 00:49:36;;;;;;;6.93;1.50;;;10.90;99.90;;;;;;5034758;28;20053;-70
2022/09/20 00:52:02;;;;;;;10.18;1.52;;;10.80;99.90;;;;;;5016935;28;20091;-70
2022/09/20 00:54:30;;;;;;;6.80;1.30;;;11.00;99.90;;;;;;5034812;28;20440;-69
2022/09/20 00:56:56;;;;;;;6.38;1.40;;;10.80;99.90;;;;;;5035066;28;20041;-70
2022/09/20 00:59:30;;;;;;;7.55;1.30;;;10.80;99.90;;;;;;5017025;28;20056;-69
2022/09/20 01:02:05;;;;;;;5.43;1.40;;;10.70;99.90;;;;;;5034973;28;20542;-70
2022/09/20 01:04:34;;;;;;;7.25;1.50;;;10.70;99.90;;;;;;5016211;28;20093;-70
2022/09/20 01:07:04;;;;;;;6.60;2.42;;;10.70;99.90;;;;;;5034488;28;20136;-70
2022/09/20 01:09:29;;;;;;;6.22;1.23;;;10.60;99.90;;;;;;5034811;28;20041;-68
2022/09/20 01:11:56;;;;;;;9.77;1.98;;;10.60;99.90;;;;;;5034488;28;20175;-69
2022/09/20 01:14:23;;;;;;;8.10;1.70;;;10.50;99.90;;;;;;5034775;28;20045;-67
2022/09/20 01:16:52;;;;;;;8.10;1.70;;;10.50;99.90;;;;;;5034703;28;20046;-70
2022/09/20 01:19:38;;;;;;;7.85;1.85;;;10.60;99.90;;;;;;5016830;28;20059;-68
2022/09/20 01:22:17;;;;;;;9.30;1.60;;;10.50;99.90;;;;;;5033363;28;20097;-69
2022/09/20 01:24:54;;;;;;;6.13;1.20;;;10.40;99.90;;;;;;5034435;28;20057;-70
2022/09/20 01:27:43;;;;;;;5.85;1.63;;;10.30;99.90;;;;;;5034509;28;20401;-70
2022/09/20 01:30:15;;;;;;;6.60;1.30;;;10.30;99.90;;;;;;5033824;28;20534;-69
2022/09/20 01:33:27;;;;;;;5.95;1.58;;;10.70;99.90;;;;;;5034253;28;20049;-71
2022/09/20 01:35:55;;;;;;;6.93;1.33;;;10.20;99.90;;;;;;4953169;29;20506;-70
2022/09/20 01:38:43;;;;;;;12.77;2.00;;;10.20;99.90;;;;;;4953756;29;20047;-69
2022/09/20 01:41:40;;;;;;;6.70;1.50;;;10.20;99.90;;;;;;4953814;29;20068;-70
2022/09/20 01:44:17;;;;;;;6.28;1.38;;;10.10;99.90;;;;;;4953744;29;20110;-70
2022/09/20 01:46:43;;;;;;;6.95;1.60;;;10.10;99.90;;;;;;4953866;29;20059;-71
2022/09/20 01:49:39;;;;;;;7.07;1.23;;;10.00;99.90;;;;;;4953435;29;20039;-71
2022/09/20 01:52:30;;;;;;;9.07;1.30;;;10.00;99.90;;;;;;4953035;29;20868;-69
2022/09/20 01:55:30;;;;;;;8.63;1.30;;;10.00;99.90;;;;;;4953472;29;20058;-70
2022/09/20 01:58:16;;;;;;;7.53;1.25;;;9.90;99.90;;;;;;4953513;29;20055;-70
2022/09/20 02:01:19;;;;;;;5.05;1.50;;;9.90;99.90;;;;;;4953556;29;20114;-69
2022/09/20 02:04:06;;;;;;;10.48;2.10;;;9.90;99.90;;;;;;4953427;29;20435;-72
2022/09/20 02:07:09;;;;;;;5.07;1.45;;;9.80;99.90;;;;;;4989019;28;20061;-69
2022/09/20 02:10:05;;;;;;;8.65;1.75;;;9.90;99.90;;;;;;4952832;29;20048;-72
2022/09/20 02:12:52;;;;;;;11.55;1.88;;;9.80;99.90;;;;;;4921541;29;20055;-77
2022/09/20 02:15:44;;;;;;;4.28;1.10;;;9.80;99.90;;;;;;4953112;29;20432;-75
2022/09/20 02:18:39;;;;;;;10.43;1.50;;;9.80;99.90;;;;;;4937177;29;20047;-76
2022/09/20 02:21:28;;;;;;;7.57;1.42;;;9.80;99.90;;;;;;4952635;29;20095;-75
2022/09/20 02:24:17;;;;;;;7.40;1.20;;;9.70;99.90;;;;;;4952542;29;20055;-74
2022/09/20 02:27:02;;;;;;;8.95;1.92;;;9.70;99.90;;;;;;4952962;29;20063;-75
2022/09/20 02:30:07;;;;;;;6.30;1.23;;;9.70;99.90;;;;;;4953195;29;20114;-70
2022/09/20 02:32:33;;;;;;;5.05;1.58;;;9.60;99.90;;;;;;4954642;29;20423;-75
2022/09/20 02:35:13;;;;;;;5.70;1.27;;;9.60;99.90;;;;;;4953526;29;20060;-73
2022/09/20 02:37:59;;;;;;;10.38;1.65;;;9.60;99.90;;;;;;4952880;29;20054;-74
2022/09/20 02:40:59;;;;;;;6.63;1.45;;;9.50;99.90;;;;;;4951708;28;20134;-71
2022/09/20 02:43:48;;;;;;;5.85;1.50;;;9.50;99.90;;;;;;4952773;29;20086;-73
2022/09/20 02:46:34;;;;;;;8.88;1.67;;;9.40;99.90;;;;;;4980472;28;20191;-70
2022/09/20 02:49:07;;;;;;;6.45;1.42;;;9.40;99.90;;;;;;5033164;28;20049;-70
2022/09/20 02:51:42;;;;;;;5.60;1.30;;;9.40;99.90;;;;;;5033051;28;20049;-70
2022/09/20 02:54:38;;;;;;;6.85;1.30;;;9.30;99.90;;;;;;5032947;28;20405;-68
2022/09/20 02:57:18;;;;;;;4.95;1.42;;;9.30;99.90;;;;;;5032953;28;20089;-69
2022/09/20 03:00:05;;;;;;;7.60;1.60;;;9.30;99.90;;;;;;5015119;28;20120;-69
2022/09/20 03:02:59;;;;;;;6.47;1.38;;;9.30;99.90;;;;;;5033073;28;20388;-70
2022/09/20 03:05:41;;;;;;;5.38;1.38;;;9.30;99.90;;;;;;5032652;28;20096;-70
2022/09/20 03:08:24;;;;;;;10.23;1.40;;;9.30;99.90;;;;;;5032486;28;20150;-70
2022/09/20 03:11:25;;;;;;;7.65;1.40;;;9.20;99.90;;;;;;5032483;28;20075;-69
2022/09/20 03:14:08;;;;;;;7.78;1.30;;;9.20;99.90;;;;;;5032969;28;20072;-70
2022/09/20 03:17:20;;;;;;;5.85;1.08;;;9.10;99.90;;;;;;5032660;28;20103;-68
2022/09/20 03:20:16;;;;;;;5.90;1.60;;;9.00;99.90;;;;;;5025179;28;20079;-70
2022/09/20 03:22:51;;;;;;;3.75;1.10;;;8.90;99.90;;;;;;5016430;28;20117;-70
2022/09/20 03:25:31;;;;;;;6.18;1.30;;;8.80;99.90;;;;;;5015043;28;20134;-73
2022/09/20 03:28:03;;;;;;;3.75;1.10;;;8.70;99.90;;;;;;5032297;28;20452;-71
2022/09/20 03:30:40;;;;;;;7.00;1.30;;;8.70;99.90;;;;;;5032721;28;20088;-68
2022/09/20 03:33:05;;;;;;;7.55;1.20;;;8.60;99.90;;;;;;5014511;28;20061;-67
2022/09/20 03:35:52;;;;;;;3.72;1.10;;;8.60;99.90;;;;;;5032601;28;20051;-68
2022/09/20 03:38:30;;;;;;;3.97;1.17;;;8.50;99.90;;;;;;5032580;28;20049;-68
2022/09/20 03:40:59;;;;;;;8.15;1.55;;;8.40;99.90;;;;;;5014096;28;20053;-70
2022/09/20 03:43:32;;;;;;;4.50;1.05;;;8.40;99.90;;;;;;5032155;28;20469;-72
2022/09/20 03:46:15;;;;;;;7.40;1.10;;;8.40;99.90;;;;;;5032398;28;20041;-72
2022/09/20 03:49:01;;;;;;;7.43;1.60;;;8.30;99.90;;;;;;5032402;28;20081;-70
2022/09/20 03:51:48;;;;;;;9.65;1.50;;;8.20;99.90;;;;;;4952587;28;20134;-70
2022/09/20 03:54:50;;;;;;;5.70;1.52;;;8.20;99.90;;;;;;4955846;29;20559;-69
2022/09/20 03:57:30;;;;;;;6.65;1.33;;;8.10;99.90;;;;;;4955430;29;20624;-67
2022/09/20 04:00:17;;;;;;;6.10;1.10;;;8.10;99.90;;;;;;4955707;29;20047;-67
2022/09/20 04:03:04;;;;;;;8.57;1.30;;;8.10;99.90;;;;;;4955735;29;20090;-70
2022/09/20 04:05:49;;;;;;;7.35;1.42;;;8.00;99.90;;;;;;4955652;29;20055;-70
2022/09/20 04:08:37;;;;;;;5.78;1.48;;;8.00;99.90;;;;;;4955667;28;20051;-72
2022/09/20 04:11:15;;;;;;;6.32;1.50;;;8.00;99.90;;;;;;4939241;29;20055;-72
2022/09/20 04:13:57;;;;;;;3.67;1.15;;;8.00;99.90;;;;;;4954822;29;20412;-69
2022/09/20 04:16:22;;;;;;;5.07;1.30;;;8.00;99.90;;;;;;4955203;29;20062;-73
2022/09/20 04:18:50;;;;;;;5.90;1.40;;;7.90;99.90;;;;;;4955132;29;20186;-68
2022/09/20 04:21:26;;;;;;;6.82;0.98;;;7.90;99.90;;;;;;4955367;29;20063;-67
2022/09/20 04:24:16;;;;;;;5.45;1.23;;;7.80;99.90;;;;;;4955116;29;20130;-68
2022/09/20 04:27:00;;;;;;;6.75;1.42;;;7.80;99.90;;;;;;4939403;29;20054;-67
2022/09/20 04:30:04;;;;;;;4.57;1.15;;;7.80;99.90;;;;;;5023698;28;20096;-68
2022/09/20 04:32:41;;;;;;;8.27;1.17;;;7.80;99.90;;;;;;5035335;28;20053;-70
2022/09/20 04:38:21;;;;;;;4.05;1.25;;;7.70;99.90;;;;;;5035262;28;20085;-68
2022/09/20 04:41:18;;;;;;;5.82;1.30;;;7.70;99.90;;;;;;5035284;28;20049;-68
2022/09/20 04:44:31;;;;;;;8.07;1.35;;;7.70;99.90;;;;;;5035449;28;20072;-70
2022/09/20 04:47:24;;;;;;;7.32;1.20;;;7.70;99.90;;;;;;4973980;28;20051;-68
2022/09/20 04:50:23;;;;;;;4.70;1.15;;;7.70;99.90;;;;;;4973539;28;20451;-68
2022/09/20 04:53:14;;;;;;;4.70;1.35;;;7.70;99.90;;;;;;4973784;28;20054;-69
2022/09/20 04:55:59;;;;;;;4.68;1.20;;;7.70;99.90;;;;;;4957583;28;20506;-69
2022/09/20 04:58:27;;;;;;;5.53;1.20;;;7.60;99.90;;;;;;4957602;28;20086;-69
2022/09/20 05:01:15;;;;;;;5.47;1.55;;;7.60;99.90;;;;;;4973281;28;20055;-69
2022/09/20 05:03:58;;;;;;;4.80;1.15;;;7.60;99.90;;;;;;4956771;28;20491;-68
2022/09/20 05:06:43;;;;;;;3.92;1.15;;;7.50;99.90;;;;;;4973490;28;20055;-68
2022/09/20 05:09:27;;;;;;;4.45;1.10;;;7.50;99.90;;;;;;4973763;28;20071;-71
2022/09/20 05:12:22;;;;;;;6.80;0.85;;;7.50;99.90;;;;;;4973520;28;20058;-71
2022/09/20 05:15:03;;;;;;;5.18;0.93;;;7.40;99.90;;;;;;4973529;28;20138;-70
2022/09/20 05:17:54;;;;;;;4.35;1.00;;;7.40;99.90;;;;;;4973025;28;20077;-70
2022/09/20 05:21:07;;;;;;;6.00;1.10;;;7.40;99.90;;;;;;4988114;28;20054;-71
2022/09/20 05:23:55;;;;;;;2.60;0.90;;;7.40;99.90;;;;;;5016594;28;20100;-70
2022/09/20 05:26:43;;;;;;;9.27;1.30;;;7.30;99.90;;;;;;5034406;28;20490;-70
2022/09/20 05:29:24;;;;;;;5.18;1.20;;;7.40;99.90;;;;;;5016475;28;20053;-71
2022/09/20 05:32:17;;;;;;;4.78;1.02;;;7.30;99.90;;;;;;5033875;28;20129;-71
2022/09/20 05:34:55;;;;;;;6.53;1.08;;;7.90;99.90;;;;;;5034260;28;20125;-71
2022/09/20 05:37:58;;;;;;;5.72;1.10;;;7.40;99.90;;;;;;5034223;28;20067;-71
2022/09/20 05:40:42;;;;;;;3.25;1.10;;;7.40;99.90;;;;;;5015806;28;20172;-71
2022/09/20 05:43:11;;;;;;;4.85;1.85;;;7.60;99.90;;;;;;5010165;28;20144;-70
2022/09/20 05:45:55;;;;;;;12.95;4.20;;;7.40;99.90;;;;;;5032499;28;20038;-69
2022/09/20 05:48:54;;;;;;;13.23;5.90;;;7.30;99.90;;;;;;5012673;28;20077;-69
2022/09/20 05:51:44;;;;;;;17.60;6.22;;;7.40;99.90;;;;;;5030607;28;20054;-69
2022/09/20 05:54:13;;;;;;;12.63;6.00;;;7.40;99.90;;;;;;5030931;28;20497;-72
2022/09/20 05:57:15;;;;;;;13.57;5.10;;;7.40;99.90;;;;;;5012779;28;20065;-68
2022/09/20 05:59:55;;;;;;;8.98;3.42;;;7.30;99.90;;;;;;5031334;28;20041;-70
2022/09/20 06:02:36;;;;;;;6.47;2.40;;;7.30;99.90;;;;;;5013124;28;20045;-73
2022/09/20 06:05:25;;;;;;;6.45;1.65;;;7.20;99.90;;;;;;5031193;28;20056;-76
2022/09/20 06:07:59;;;;;;;2.45;1.05;;;7.20;99.90;;;;;;5030248;28;20107;-72
2022/09/20 06:10:50;;;;;;;3.45;1.08;;;7.30;99.90;;;;;;5032018;28;20042;-71
2022/09/20 06:13:42;;;;;;;5.60;1.00;;;7.30;99.90;;;;;;4953281;29;20563;-71
2022/09/20 06:16:19;;;;;;;4.63;1.17;;;7.40;99.90;;;;;;4952304;28;20082;-72
2022/09/20 06:19:03;;;;;;;5.57;1.17;;;7.50;99.90;;;;;;4952813;29;20055;-70
2022/09/20 06:21:50;;;;;;;4.13;0.80;;;7.50;99.90;;;;;;4953168;29;20121;-70
2022/09/20 06:24:29;;;;;;;3.78;0.90;;;7.60;99.90;;;;;;4953161;29;20047;-68
2022/09/20 06:26:58;;;;;;;3.55;0.80;;;7.70;99.90;;;;;;4952995;29;20047;-69
2022/09/20 06:29:34;;;;;;;2.30;0.80;;;7.80;99.90;;;;;;4952989;29;20066;-70
2022/09/20 06:31:59;;;;;;;3.47;1.20;;;7.90;99.90;;;;;;4952799;29;20138;-71
2022/09/20 06:34:27;;;;;;;2.60;0.90;;;7.90;99.90;;;;;;4952708;29;20243;-72
2022/09/20 06:43:32;;;;;;;7.28;1.23;;;8.10;99.90;;;;;;4949746;29;20515;-74
2022/09/20 06:45:58;;;;;;;5.70;1.20;;;8.20;99.90;;;;;;4933891;29;20043;-67
2022/09/20 06:48:24;;;;;;;6.18;1.27;;;8.20;99.90;;;;;;4934709;29;20418;-68
2022/09/20 06:50:51;;;;;;;6.15;1.05;;;8.20;99.90;;;;;;5007560;28;20054;-75
2022/09/20 06:53:31;;;;;;;2.55;1.20;;;8.20;99.90;;;;;;5030198;28;20129;-74
2022/09/20 06:55:58;;;;;;;7.88;1.40;;;8.20;99.90;;;;;;5028898;28;20417;-74
2022/09/20 06:58:24;;;;;;;5.45;1.17;;;8.20;99.90;;;;;;5012412;28;20045;-74
2022/09/20 07:00:49;;;;;;;1.98;0.82;;;8.20;99.90;;;;;;5012415;28;20417;-74
2022/09/20 07:03:16;;;;;;;6.03;1.00;;;8.10;99.90;;;;;;5012455;28;20053;-74
2022/09/20 07:05:42;;;;;;;3.92;0.98;;;8.20;99.90;;;;;;5030667;28;20405;-76
2022/09/20 07:08:08;;;;;;;4.32;1.05;;;8.50;99.90;;;;;;5026518;28;20067;-69
2022/09/20 07:10:34;;;;;;;4.43;1.40;;;8.30;99.90;;;;;;5027460;28;20057;-68
2022/09/20 07:13:01;;;;;;;7.72;1.90;;;8.60;99.90;;;;;;5027380;28;20042;-68
2022/09/20 07:15:28;;;;;;;3.63;1.20;;;8.70;99.90;;;;;;5030586;28;20161;-68
2022/09/20 07:17:54;;;;;;;5.05;1.40;;;9.10;99.90;;;;;;5030049;28;20053;-68
2022/09/20 07:20:20;;;;;;;7.85;1.30;;;9.30;99.90;;;;;;5029613;28;20128;-68
2022/09/20 07:22:46;;;;;;;7.05;1.30;;;9.50;99.90;;;;;;5029951;28;20045;-68
2022/09/20 07:25:12;;;;;;;7.75;1.58;;;9.70;99.90;;;;;;5029759;28;20045;-68
2022/09/20 07:27:38;;;;;;;6.40;1.77;;;9.90;99.90;;;;;;5033144;28;20046;-68
2022/09/20 07:30:04;;;;;;;9.40;2.50;;;10.00;99.90;;;;;;5033615;28;20052;-68
2022/09/20 07:32:30;;;;;;;8.52;2.50;;;10.20;99.90;;;;;;5034157;28;21313;-68
2022/09/20 07:34:56;;;;;;;8.23;2.35;;;10.30;99.90;;;;;;5036367;28;20136;-68
2022/09/20 07:37:21;;;;;;;6.72;2.58;;;10.40;99.90;;;;;;5036424;28;20037;-68
2022/09/20 07:39:47;;;;;;;7.10;2.35;;;10.50;99.90;;;;;;5031606;28;20104;-71
2022/09/20 07:42:13;;;;;;;11.15;2.50;;;10.60;99.90;;;;;;5007269;28;20084;-74
2022/09/20 07:44:42;;;;;;;7.10;1.75;;;10.70;99.90;;;;;;5029039;28;20049;-71
2022/09/20 07:47:12;;;;;;;7.10;1.83;;;10.80;99.90;;;;;;5030736;28;20822;-73
2022/09/20 07:49:38;;;;;;;8.25;2.20;;;10.80;99.90;;;;;;5033750;28;20042;-72
2022/09/20 07:52:04;;;;;;;6.25;1.98;;;11.00;99.90;;;;;;5016359;28;20063;-72
2022/09/20 07:54:30;;;;;;;7.00;2.97;;;10.90;99.90;;;;;;5033038;28;20555;-73
2022/09/20 07:56:56;;;;;;;6.57;1.42;;;11.00;99.90;;;;;;5032748;28;20056;-74
2022/09/20 07:59:21;;;;;;;4.80;1.23;;;11.10;99.90;;;;;;5033382;28;20045;-74
2022/09/20 08:01:47;;;;;;;5.93;1.88;;;11.40;99.90;;;;;;5033845;28;20053;-73
2022/09/20 08:04:13;;;;;;;8.32;1.30;;;11.50;99.90;;;;;;5033088;28;20049;-72
2022/09/20 08:06:43;;;;;;;11.20;1.70;;;11.60;99.90;;;;;;5032943;28;20057;-72
2022/09/20 08:09:11;;;;;;;8.68;2.00;;;11.70;99.90;;;;;;5015319;28;20068;-74
2022/09/20 08:11:38;;;;;;;8.02;1.70;;;11.70;99.90;;;;;;5015027;28;20042;-74
2022/09/20 08:14:04;;;;;;;5.50;1.58;;;11.70;99.90;;;;;;5015903;28;20053;-74
2022/09/20 08:16:31;;;;;;;3.42;1.30;;;11.60;99.90;;;;;;5032932;28;20053;-73
2022/09/20 08:19:01;;;;;;;3.33;1.25;;;11.50;99.90;;;;;;5033191;28;20037;-75
2022/09/20 08:21:31;;;;;;;9.18;2.17;;;11.40;99.90;;;;;;5032865;28;20120;-73
2022/09/20 08:23:57;;;;;;;10.13;1.80;;;11.30;99.90;;;;;;5015415;28;20056;-73
2022/09/20 08:26:24;;;;;;;10.55;3.20;;;11.30;99.90;;;;;;5032183;28;20045;-70
2022/09/20 08:28:55;;;;;;;13.98;5.65;;;11.20;99.90;;;;;;5032942;28;20049;-70
2022/09/20 08:31:23;;;;;;;13.07;3.43;;;11.20;99.90;;;;;;5032824;28;20541;-70
2022/09/20 08:33:51;;;;;;;11.40;3.65;;;11.20;99.90;;;;;;5033050;28;20155;-74
2022/09/20 08:36:19;;;;;;;9.52;3.72;;;11.10;99.90;;;;;;5032604;28;20507;-70
2022/09/20 08:38:45;;;;;;;12.63;4.57;;;11.10;99.90;;;;;;5031672;28;20053;-72
2022/09/20 08:41:25;;;;;;;15.55;4.05;;;11.20;99.90;;;;;;5014478;28;20129;-67
2022/09/20 08:44:12;;;;;;;10.98;4.10;;;11.10;99.90;;;;;;5012982;28;20041;-71
2022/09/20 08:46:43;;;;;;;12.55;4.30;;;11.20;99.90;;;;;;5013718;28;20079;-75
2022/09/20 08:49:18;;;;;;;9.43;3.70;;;11.40;99.90;;;;;;5032504;28;20129;-72
2022/09/20 08:51:48;;;;;;;12.63;4.35;;;11.40;99.90;;;;;;5032579;28;20060;-74
2022/09/20 08:54:15;;;;;;;10.38;3.35;;;11.50;99.90;;;;;;5032257;28;20053;-73
2022/09/20 08:56:45;;;;;;;11.40;3.40;;;11.70;99.90;;;;;;5014307;28;20128;-72
2022/09/20 08:59:16;;;;;;;11.80;3.97;;;11.90;99.90;;;;;;5033845;28;20053;-67
2022/09/20 09:01:42;;;;;;;8.23;2.60;;;12.10;99.90;;;;;;5031372;28;20447;-71
2022/09/20 09:04:20;;;;;;;5.32;2.05;;;12.30;99.90;;;;;;4998333;28;20037;-74
2022/09/20 09:06:47;;;;;;;3.53;1.30;;;12.40;99.90;;;;;;5031177;28;20067;-72
2022/09/20 09:09:40;;;;;;;6.47;2.10;;;12.60;99.90;;;;;;5032244;28;20042;-73
2022/09/20 09:12:19;;;;;;;9.90;2.08;;;12.80;99.90;;;;;;5029124;28;20378;-73
2022/09/20 09:14:50;;;;;;;6.90;1.50;;;13.00;99.90;;;;;;5030315;28;20045;-73
2022/09/20 09:17:18;;;;;;;5.03;1.30;;;13.10;99.90;;;;;;5032279;28;20042;-73
2022/09/20 09:19:54;;;;;;;5.13;1.27;;;13.30;99.90;;;;;;5032023;28;20054;-75
2022/09/20 09:22:38;;;;;;;7.13;1.45;;;13.40;99.90;;;;;;5032143;28;20041;-75
2022/09/20 09:25:16;;;;;;;7.03;0.80;;;13.50;99.90;;;;;;5031661;28;20042;-75
2022/09/20 09:28:04;;;;;;;5.22;0.80;;;13.60;99.90;;;;;;5022793;28;20042;-71
2022/09/20 09:30:40;;;;;;;3.55;0.73;;;13.60;99.90;;;;;;5023996;28;20176;-70
2022/09/20 09:33:25;;;;;;;1.63;0.57;;;13.70;99.90;;;;;;5031176;28;20135;-73
2022/09/20 09:35:58;;;;;;;4.07;0.90;;;13.90;99.90;;;;;;5030362;28;20045;-71
2022/09/20 09:38:30;;;;;;;4.53;1.13;;;14.00;99.90;;;;;;5013340;28;20096;-73
2022/09/20 09:41:00;;;;;;;5.25;0.88;;;14.10;99.90;;;;;;5031927;28;20048;-74
2022/09/20 09:43:34;;;;;;;6.68;1.58;;;14.30;99.90;;;;;;5030854;28;20048;-74
2022/09/20 09:46:22;;;;;;;2.60;0.52;;;14.40;99.90;;;;;;5031295;28;20543;-74
2022/09/20 09:49:16;;;;;;;6.35;1.00;;;14.60;99.90;;;;;;5030994;28;20132;-73
2022/09/20 09:52:01;;;;;;;6.45;1.75;;;14.80;99.90;;;;;;5031345;28;20127;-73
2022/09/20 09:54:36;;;;;;;6.00;0.90;;;14.90;99.90;;;;;;5031261;28;20056;-70
2022/09/20 09:57:18;;;;;;;4.30;1.25;;;14.90;99.90;;;;;;5031413;28;20048;-68
2022/09/20 10:00:09;;;;;;;5.05;0.75;;;14.90;99.90;;;;;;5027262;28;20140;-71
2022/09/20 10:02:48;;;;;;;6.18;0.70;;;14.90;99.90;;;;;;5031065;28;20057;-75
2022/09/20 10:05:58;;;;;;;3.13;0.70;;;14.90;99.90;;;;;;5013104;28;20055;-73
2022/09/20 10:09:03;;;;;;;4.82;0.70;;;14.70;99.90;;;;;;4995740;28;20183;-77
2022/09/20 10:11:57;;;;;;;3.45;0.70;;;14.60;99.90;;;;;;5029635;28;20045;-83
2022/09/20 10:15:03;;;;;;;5.95;0.90;;;14.20;99.90;;;;;;5031144;28;20041;-80
2022/09/20 10:18:01;;;;;;;3.45;1.15;;;13.80;99.90;;;;;;4947553;29;20561;-79
2022/09/20 10:20:52;;;;;;;3.08;0.70;;;13.60;99.90;;;;;;4917702;29;20138;-72
2022/09/20 10:23:44;;;;;;;4.20;0.82;;;13.50;99.90;;;;;;4917044;29;20392;-71
2022/09/20 10:26:24;;;;;;;4.82;0.73;;;13.40;99.90;;;;;;4911462;29;20087;-72
2022/09/20 10:29:21;;;;;;;3.70;1.00;;;13.40;99.90;;;;;;4911619;29;20056;-69
2022/09/20 10:32:25;;;;;;;5.13;0.75;;;13.30;99.90;;;;;;4908296;29;20056;-70
2022/09/20 10:35:21;;;;;;;3.80;0.80;;;13.40;99.90;;;;;;4909644;29;20056;-70
2022/09/20 10:38:12;;;;;;;6.10;0.95;;;13.30;99.90;;;;;;4906471;29;20091;-71
2022/09/20 10:43:56;;;;;;;6.10;1.20;;;13.40;99.90;;;;;;4904647;29;20140;-70
2022/09/20 10:46:44;;;;;;;6.05;1.50;;;13.60;99.90;;;;;;4915738;29;20044;-70
2022/09/20 10:49:41;;;;;;;4.30;0.80;;;13.80;99.90;;;;;;4910679;29;20056;-72
2022/09/20 10:52:33;;;;;;;4.80;1.05;;;14.10;99.90;;;;;;4973153;28;20050;-72
2022/09/20 10:55:30;;;;;;;2.88;1.08;;;14.40;99.90;;;;;;4987698;28;20550;-73
2022/09/20 10:58:03;;;;;;;3.85;0.90;;;14.60;99.90;;;;;;4972798;28;20056;-79
2022/09/20 11:00:44;;;;;;;2.08;0.70;;;14.80;99.90;;;;;;5003416;28;20053;-72
2022/09/20 11:03:28;;;;;;;4.10;0.68;;;14.80;99.90;;;;;;5012028;28;20038;-79
2022/09/20 11:06:01;;;;;;;3.22;0.52;;;14.90;99.90;;;;;;4995143;28;20489;-76
2022/09/20 11:08:32;;;;;;;3.33;0.70;;;14.90;99.90;;;;;;5012993;28;20085;-79
2022/09/20 11:11:06;;;;;;;4.50;0.77;;;15.20;99.90;;;;;;5012738;28;20134;-79
2022/09/20 11:13:44;;;;;;;2.40;0.77;;;15.50;99.90;;;;;;5012662;28;20486;-74
2022/09/20 11:16:32;;;;;;;5.85;0.90;;;15.70;99.90;;;;;;5027900;28;20056;-73
2022/09/20 11:19:23;;;;;;;4.90;0.80;;;16.00;99.90;;;;;;5030595;28;20511;-76
2022/09/20 11:21:57;;;;;;;5.70;0.75;;;16.20;99.90;;;;;;5028656;28;20168;-78
2022/09/20 11:25:11;;;;;;;8.13;1.35;;;16.50;99.90;;;;;;5030323;28;20510;-78
2022/09/20 11:27:43;;;;;;;5.63;0.90;;;16.60;99.90;;;;;;4988811;28;20069;-75
2022/09/20 11:30:18;;;;;;;;;;;16.50;99.90;;;;;;4989479;28;20108;-74
2022/09/20 11:32:47;;;;;;;2.22;0.70;;;16.30;99.90;;;;;;4987847;28;19925;-78
2022/09/20 11:35:34;;;;;;;2.88;0.60;;;16.30;99.90;;;;;;4992156;28;20503;-73
2022/09/20 11:38:20;;;;;;;8.05;0.90;;;16.20;99.90;;;;;;4988520;28;20140;-74
2022/09/20 11:41:25;;;;;;;6.95;0.90;;;16.00;99.90;;;;;;4990605;28;20065;-72
2022/09/20 11:43:54;;;;;;;3.83;1.40;;;16.00;99.90;;;;;;4988214;28;20058;-75
2022/09/20 11:46:26;;;;;;;5.15;0.77;;;15.80;99.90;;;;;;4990506;28;20133;-72
2022/09/20 11:49:14;;;;;;;3.80;0.70;;;15.90;99.90;;;;;;4993459;28;20054;-77
2022/09/20 11:52:04;;;;;;;1.95;0.50;;;16.10;99.90;;;;;;4998840;28;20080;-74
2022/09/20 11:55:04;;;;;;;4.70;0.70;;;16.20;99.90;;;;;;4987997;28;20066;-76
2022/09/20 11:57:30;;;;;;;3.35;0.80;;;16.30;99.90;;;;;;4988787;28;20058;-75
2022/09/20 12:00:01;;;;;;;4.20;0.60;;;16.40;99.90;;;;;;4989100;28;20046;-75
2022/09/20 12:02:40;;;;;;;5.18;0.70;;;16.50;99.90;;;;;;4984869;28;20058;-75
2022/09/20 12:05:25;;;;;;;5.30;0.70;;;16.40;99.90;;;;;;5028669;28;20037;-74
2022/09/20 12:07:54;;;;;;;5.32;0.75;;;16.30;99.90;;;;;;5027519;28;20064;-74
2022/09/20 12:10:24;;;;;;;5.28;0.63;;;16.10;99.90;;;;;;5029436;28;20572;-73
2022/09/20 12:13:02;;;;;;;5.38;0.70;;;15.90;99.90;;;;;;5028898;28;20046;-73
2022/09/20 12:15:37;;;;;;;5.85;0.60;;;16.00;99.90;;;;;;5015091;28;20057;-75
2022/09/20 12:18:11;;;;;;;4.38;0.80;;;16.10;99.90;;;;;;5033397;28;20037;-73
2022/09/20 12:20:43;;;;;;;4.22;0.70;;;16.30;99.90;;;;;;5032538;28;20092;-77
2022/09/20 12:23:37;;;;;;;7.82;0.90;;;16.80;99.90;;;;;;5014859;28;20103;-74
2022/09/20 12:26:16;;;;;;;3.13;0.77;;;17.10;99.90;;;;;;5032972;28;20077;-77
2022/09/20 12:28:48;;;;;;;10.77;1.38;;;17.20;99.90;;;;;;5014794;28;20405;-72
2022/09/20 12:31:17;;;;;;;7.07;1.00;;;16.90;99.90;;;;;;5032883;28;20041;-74
2022/09/20 12:33:59;;;;;;;4.55;0.88;;;16.70;99.90;;;;;;5032511;28;20049;-73
2022/09/20 12:36:54;;;;;;;5.60;0.82;;;16.40;99.90;;;;;;5013654;28;20049;-76
2022/09/20 12:39:28;;;;;;;9.02;1.60;;;16.20;99.90;;;;;;4949537;29;20500;-75
2022/09/20 12:42:10;;;;;;;1.55;0.60;;;16.10;99.90;;;;;;4949247;29;20186;-73
2022/09/20 12:44:48;;;;;;;8.35;1.35;;;15.90;99.90;;;;;;4933181;29;20606;-73
2022/09/20 12:47:19;;;;;;;3.72;0.70;;;15.80;99.90;;;;;;4933687;29;20063;-75
2022/09/20 12:52:52;;;;;;;2.40;0.63;;;15.70;99.90;;;;;;4932693;29;20059;-74
2022/09/20 12:56:13;;;;;;;6.30;0.95;;;15.80;99.90;;;;;;4930425;29;20556;-72
2022/09/20 12:58:51;;;;;;;8.38;1.73;;;16.10;99.90;;;;;;4934091;29;20143;-74
2022/09/20 13:01:17;;;;;;;6.22;1.02;;;16.00;99.90;;;;;;4933948;29;20036;-74
2022/09/20 13:03:45;;;;;;;6.13;0.80;;;15.90;99.90;;;;;;4933125;29;20070;-73
2022/09/20 13:06:18;;;;;;;8.23;1.13;;;15.70;99.90;;;;;;4932204;29;20119;-72
2022/09/20 13:09:00;;;;;;;4.80;0.98;;;15.60;99.90;;;;;;4931883;29;20107;-74
2022/09/20 13:12:04;;;;;;;5.00;0.90;;;15.50;99.90;;;;;;4933308;29;20059;-78
2022/09/20 13:14:31;;;;;;;5.93;0.90;;;15.40;99.90;;;;;;4948392;29;20075;-79
2022/09/20 13:17:16;;;;;;;4.35;0.80;;;15.40;99.90;;;;;;5006260;28;20095;-74
2022/09/20 13:19:46;;;;;;;3.80;0.80;;;15.30;99.90;;;;;;5031331;28;20049;-74
2022/09/20 13:22:25;;;;;;;3.47;0.57;;;15.30;99.90;;;;;;5030619;28;20065;-79
2022/09/20 13:25:01;;;;;;;7.95;0.80;;;15.30;99.90;;;;;;4996452;28;20057;-79
2022/09/20 13:27:47;;;;;;;4.65;0.93;;;15.40;99.90;;;;;;5032071;28;20107;-72
2022/09/20 13:30:24;;;;;;;8.27;0.80;;;15.40;99.90;;;;;;5030761;28;20052;-72
2022/09/20 13:32:50;;;;;;;2.78;0.70;;;15.40;99.90;;;;;;5030462;28;20100;-72
2022/09/20 13:35:18;;;;;;;4.22;1.23;;;15.40;99.90;;;;;;5014102;28;20045;-77
2022/09/20 13:37:52;;;;;;;4.80;0.80;;;15.40;99.90;;;;;;5030891;28;20500;-75
2022/09/20 13:40:24;;;;;;;4.15;0.90;;;15.40;99.90;;;;;;5031038;28;20117;-74
2022/09/20 13:42:52;;;;;;;6.50;1.08;;;15.50;99.90;;;;;;5029132;28;20037;-72
2022/09/20 13:45:20;;;;;;;4.75;0.85;;;15.60;99.90;;;;;;5024161;28;20061;-71
2022/09/20 13:47:51;;;;;;;4.20;0.82;;;15.70;99.90;;;;;;5014009;28;20091;-71
2022/09/20 13:50:36;;;;;;;6.90;0.70;;;15.70;99.90;;;;;;5031163;28;20576;-78
2022/09/20 13:53:14;;;;;;;4.18;0.80;;;15.90;99.90;;;;;;5024899;28;20084;-68
2022/09/20 13:55:42;;;;;;;5.38;0.50;;;16.00;99.90;;;;;;5019785;28;20048;-69
2022/09/20 13:58:32;;;;;;;3.67;0.50;;;15.90;99.90;;;;;;5024341;28;20037;-75
2022/09/20 14:01:00;;;;;;;4.82;0.80;;;16.00;99.90;;;;;;5026466;28;20038;-72
2022/09/20 14:03:28;;;;;;;3.17;0.63;;;16.20;99.90;;;;;;5030942;28;20037;-77
2022/09/20 14:06:00;;;;;;;3.28;0.60;;;16.40;99.90;;;;;;5002918;28;20052;-76
2022/09/20 14:08:47;;;;;;;4.68;1.77;;;16.50;99.90;;;;;;5030679;28;20496;-74